sensor_id;sensor_type;location;lat;lon;timestamp;pressure;altitude;pressure_sealevel;temperature;humidity
15914;BME280;8055;51.930;8.840;2023-07-08T00:01:14;75350.88;;;-145.72;78.66
15914;BME280;8055;51.930;8.840;2023-07-08T00:03:40;75348.78;;;-145.72;77.07
15914;BME280;8055;51.930;8.840;2023-07-08T00:06:11;75342.59;;;-145.72;77.22
15914;BME280;8055;51.930;8.840;2023-07-08T00:08:37;75336.38;;;-145.72;77.34
15914;BME280;8055;51.930;8.840;2023-07-08T00:11:10;75348.78;;;-145.72;78.97
15914;BME280;8055;51.930;8.840;2023-07-08T00:13:36;75344.66;;;-145.72;77.20
15914;BME280;8055;51.930;8.840;2023-07-08T00:16:01;75344.66;;;-145.72;78.37
15914;BME280;8055;51.930;8.840;2023-07-08T00:18:26;75342.59;;;-145.72;77.48
15914;BME280;8055;51.930;8.840;2023-07-08T00:20:52;75340.50;;;-145.72;77.93
15914;BME280;8055;51.930;8.840;2023-07-08T00:23:17;75346.72;;;-145.72;80.28
15914;BME280;8055;51.930;8.840;2023-07-08T00:25:47;75355.00;;;-145.72;78.91
15914;BME280;8055;51.930;8.840;2023-07-08T00:28:20;75352.94;;;-145.72;78.01
15914;BME280;8055;51.930;8.840;2023-07-08T00:30:46;75350.88;;;-145.72;76.97
15914;BME280;8055;51.930;8.840;2023-07-08T00:33:12;75365.34;;;-145.72;79.28
15914;BME280;8055;51.930;8.840;2023-07-08T00:35:40;75357.06;;;-145.72;80.45
15914;BME280;8055;51.930;8.840;2023-07-08T00:38:19;75357.06;;;-145.72;79.95
15914;BME280;8055;51.930;8.840;2023-07-08T00:40:52;75359.13;;;-145.72;80.54
15914;BME280;8055;51.930;8.840;2023-07-08T00:43:23;75367.41;;;-145.72;78.60
15914;BME280;8055;51.930;8.840;2023-07-08T00:45:51;75357.06;;;-145.72;77.34
15914;BME280;8055;51.930;8.840;2023-07-08T00:48:28;75355.00;;;-145.72;79.08
15914;BME280;8055;51.930;8.840;2023-07-08T00:50:55;75355.00;;;-145.72;77.97
15914;BME280;8055;51.930;8.840;2023-07-08T00:53:32;75350.88;;;-145.72;77.56
15914;BME280;8055;51.930;8.840;2023-07-08T00:56:00;75344.66;;;-145.72;76.86
15914;BME280;8055;51.930;8.840;2023-07-08T00:58:32;75340.50;;;-145.72;75.64
15914;BME280;8055;51.930;8.840;2023-07-08T01:00:59;75344.66;;;-145.72;77.46
15914;BME280;8055;51.930;8.840;2023-07-08T01:03:25;75357.06;;;-145.72;76.39
15914;BME280;8055;51.930;8.840;2023-07-08T01:05:54;75352.94;;;-145.72;77.51
15914;BME280;8055;51.930;8.840;2023-07-08T01:08:25;75350.88;;;-145.72;76.72
15914;BME280;8055;51.930;8.840;2023-07-08T01:10:58;75348.78;;;-145.72;77.45
15914;BME280;8055;51.930;8.840;2023-07-08T01:13:28;75350.88;;;-145.72;77.17
15914;BME280;8055;51.930;8.840;2023-07-08T01:15:56;75346.72;;;-145.72;76.76
15914;BME280;8055;51.930;8.840;2023-07-08T01:18:23;75348.78;;;-145.72;76.09
15914;BME280;8055;51.930;8.840;2023-07-08T01:20:50;75355.00;;;-145.72;77.79
15914;BME280;8055;51.930;8.840;2023-07-08T01:23:17;75359.13;;;-145.72;78.21
15914;BME280;8055;51.930;8.840;2023-07-08T01:25:44;75361.22;;;-145.72;78.29
15914;BME280;8055;51.930;8.840;2023-07-08T01:28:10;75359.13;;;-145.72;75.67
15914;BME280;8055;51.930;8.840;2023-07-08T01:30:36;75361.22;;;-145.72;77.01
15914;BME280;8055;51.930;8.840;2023-07-08T01:33:05;75355.00;;;-145.72;77.16
15914;BME280;8055;51.930;8.840;2023-07-08T01:35:32;75357.06;;;-145.72;75.86
15914;BME280;8055;51.930;8.840;2023-07-08T01:38:00;75361.22;;;-145.72;75.82
15914;BME280;8055;51.930;8.840;2023-07-08T01:40:36;75365.34;;;-145.72;76.59
15914;BME280;8055;51.930;8.840;2023-07-08T01:43:04;75369.47;;;-145.72;76.80
15914;BME280;8055;51.930;8.840;2023-07-08T01:45:36;75361.22;;;-145.72;77.48
15914;BME280;8055;51.930;8.840;2023-07-08T01:48:08;75359.13;;;-145.72;76.78
15914;BME280;8055;51.930;8.840;2023-07-08T01:50:38;75359.13;;;-145.72;76.31
15914;BME280;8055;51.930;8.840;2023-07-08T01:53:11;75365.34;;;-145.72;76.24
15914;BME280;8055;51.930;8.840;2023-07-08T01:55:37;75357.06;;;-145.72;76.83
15914;BME280;8055;51.930;8.840;2023-07-08T01:58:02;75361.22;;;-145.72;77.90
15914;BME280;8055;51.930;8.840;2023-07-08T02:00:27;75361.22;;;-145.72;77.48
15914;BME280;8055;51.930;8.840;2023-07-08T02:02:53;75365.34;;;-145.72;75.66
15914;BME280;8055;51.930;8.840;2023-07-08T02:05:18;75357.06;;;-145.72;75.37
15914;BME280;8055;51.930;8.840;2023-07-08T02:07:44;75350.88;;;-145.72;74.63
15914;BME280;8055;51.930;8.840;2023-07-08T02:10:09;75357.06;;;-145.72;77.28
15914;BME280;8055;51.930;8.840;2023-07-08T02:12:35;75363.28;;;-145.72;76.02
15914;BME280;8055;51.930;8.840;2023-07-08T02:15:01;75365.34;;;-145.72;76.95
15914;BME280;8055;51.930;8.840;2023-07-08T02:17:27;75365.34;;;-145.72;76.57
15914;BME280;8055;51.930;8.840;2023-07-08T02:19:56;75367.41;;;-145.72;76.16
15914;BME280;8055;51.930;8.840;2023-07-08T02:22:22;75373.63;;;-145.72;78.35
15914;BME280;8055;51.930;8.840;2023-07-08T02:24:47;75375.69;;;-145.72;77.41
15914;BME280;8055;51.930;8.840;2023-07-08T02:27:13;75373.63;;;-145.72;78.32
15914;BME280;8055;51.930;8.840;2023-07-08T02:29:38;75369.47;;;-145.72;76.91
15914;BME280;8055;51.930;8.840;2023-07-08T02:32:04;75367.41;;;-145.72;76.07
15914;BME280;8055;51.930;8.840;2023-07-08T02:34:30;75363.28;;;-145.72;75.97
15914;BME280;8055;51.930;8.840;2023-07-08T02:36:55;75373.63;;;-145.72;77.28
15914;BME280;8055;51.930;8.840;2023-07-08T02:39:22;75369.47;;;-145.72;76.41
15914;BME280;8055;51.930;8.840;2023-07-08T02:41:47;75373.63;;;-145.72;77.60
15914;BME280;8055;51.930;8.840;2023-07-08T02:44:12;75367.41;;;-145.72;77.30
15914;BME280;8055;51.930;8.840;2023-07-08T02:46:38;75381.91;;;-145.72;78.17
15914;BME280;8055;51.930;8.840;2023-07-08T02:49:03;75386.03;;;-145.72;78.51
15914;BME280;8055;51.930;8.840;2023-07-08T02:51:29;75375.69;;;-145.72;77.58
15914;BME280;8055;51.930;8.840;2023-07-08T02:53:55;75381.91;;;-145.72;79.85
15914;BME280;8055;51.930;8.840;2023-07-08T02:56:20;75383.97;;;-145.72;77.70
15914;BME280;8055;51.930;8.840;2023-07-08T02:58:47;75383.97;;;-145.72;77.34
15914;BME280;8055;51.930;8.840;2023-07-08T03:01:13;75379.81;;;-145.72;78.18
15914;BME280;8055;51.930;8.840;2023-07-08T03:03:43;75386.03;;;-145.72;78.77
15914;BME280;8055;51.930;8.840;2023-07-08T03:06:08;75383.97;;;-145.72;77.11
15914;BME280;8055;51.930;8.840;2023-07-08T03:08:34;75398.44;;;-145.72;77.51
15914;BME280;8055;51.930;8.840;2023-07-08T03:11:02;75379.81;;;-145.72;77.69
15914;BME280;8055;51.930;8.840;2023-07-08T03:13:28;75383.97;;;-145.72;76.88
15914;BME280;8055;51.930;8.840;2023-07-08T03:15:54;75379.81;;;-145.72;77.48
15914;BME280;8055;51.930;8.840;2023-07-08T03:18:20;75390.16;;;-145.72;78.32
15914;BME280;8055;51.930;8.840;2023-07-08T03:20:48;75373.63;;;-145.72;76.75
15914;BME280;8055;51.930;8.840;2023-07-08T03:23:13;75381.91;;;-145.72;76.05
15914;BME280;8055;51.930;8.840;2023-07-08T03:25:39;75386.03;;;-145.72;77.90
15914;BME280;8055;51.930;8.840;2023-07-08T03:28:05;75379.81;;;-145.72;76.72
15914;BME280;8055;51.930;8.840;2023-07-08T03:30:43;75377.75;;;-145.72;76.74
15914;BME280;8055;51.930;8.840;2023-07-08T03:33:09;75381.91;;;-145.72;76.53
15914;BME280;8055;51.930;8.840;2023-07-08T03:35:35;75386.03;;;-145.72;76.72
15914;BME280;8055;51.930;8.840;2023-07-08T03:38:00;75392.25;;;-145.72;76.54
15914;BME280;8055;51.930;8.840;2023-07-08T03:40:26;75390.16;;;-145.72;77.51
15914;BME280;8055;51.930;8.840;2023-07-08T03:42:51;75398.44;;;-145.72;76.95
15914;BME280;8055;51.930;8.840;2023-07-08T03:45:17;75390.16;;;-145.72;77.43
15914;BME280;8055;51.930;8.840;2023-07-08T03:47:42;75390.16;;;-145.72;76.21
15914;BME280;8055;51.930;8.840;2023-07-08T03:50:19;75386.03;;;-145.72;76.72
15914;BME280;8055;51.930;8.840;2023-07-08T03:52:46;75379.81;;;-145.72;75.70
15914;BME280;8055;51.930;8.840;2023-07-08T03:55:12;75377.75;;;-145.72;75.30
15914;BME280;8055;51.930;8.840;2023-07-08T03:57:38;75381.91;;;-145.72;75.86
15914;BME280;8055;51.930;8.840;2023-07-08T04:00:04;75377.75;;;-145.72;75.71
15914;BME280;8055;51.930;8.840;2023-07-08T04:02:30;75381.91;;;-145.72;76.87
15914;BME280;8055;51.930;8.840;2023-07-08T04:04:55;75373.63;;;-145.72;76.08
15914;BME280;8055;51.930;8.840;2023-07-08T04:07:20;75379.81;;;-145.72;77.79
15914;BME280;8055;51.930;8.840;2023-07-08T04:09:46;75386.03;;;-145.72;77.65
15914;BME280;8055;51.930;8.840;2023-07-08T04:12:15;75388.09;;;-145.72;78.42
15914;BME280;8055;51.930;8.840;2023-07-08T04:14:40;75392.25;;;-145.72;78.55
15914;BME280;8055;51.930;8.840;2023-07-08T04:17:09;75396.38;;;-145.72;78.97
15914;BME280;8055;51.930;8.840;2023-07-08T04:19:34;75392.25;;;-145.72;77.83
15914;BME280;8055;51.930;8.840;2023-07-08T04:22:01;75388.09;;;-145.72;76.47
15914;BME280;8055;51.930;8.840;2023-07-08T04:24:27;75386.03;;;-145.72;76.78
15914;BME280;8055;51.930;8.840;2023-07-08T04:26:53;75377.75;;;-145.72;75.34
15914;BME280;8055;51.930;8.840;2023-07-08T04:29:20;75381.91;;;-145.72;76.78
15914;BME280;8055;51.930;8.840;2023-07-08T04:31:46;75373.63;;;-145.72;76.25
15914;BME280;8055;51.930;8.840;2023-07-08T04:34:12;75361.22;;;-145.72;76.34
15914;BME280;8055;51.930;8.840;2023-07-08T04:36:38;75367.41;;;-145.72;76.55
15914;BME280;8055;51.930;8.840;2023-07-08T04:39:04;75361.22;;;-145.72;77.51
15914;BME280;8055;51.930;8.840;2023-07-08T04:41:31;75365.34;;;-145.72;76.36
15914;BME280;8055;51.930;8.840;2023-07-08T04:43:56;75361.22;;;-145.72;75.94
15914;BME280;8055;51.930;8.840;2023-07-08T04:46:32;75352.94;;;-145.72;76.17
15914;BME280;8055;51.930;8.840;2023-07-08T04:49:01;75344.66;;;-145.72;75.96
15914;BME280;8055;51.930;8.840;2023-07-08T04:51:26;75336.38;;;-145.72;74.27
15914;BME280;8055;51.930;8.840;2023-07-08T04:53:52;75336.38;;;-145.72;74.33
15914;BME280;8055;51.930;8.840;2023-07-08T04:56:17;75319.81;;;-145.72;74.01
15914;BME280;8055;51.930;8.840;2023-07-08T04:58:42;75311.56;;;-145.72;72.03
15914;BME280;8055;51.930;8.840;2023-07-08T05:01:08;75303.28;;;-145.72;72.95
15914;BME280;8055;51.930;8.840;2023-07-08T05:03:33;75286.72;;;-145.72;72.75
15914;BME280;8055;51.930;8.840;2023-07-08T05:05:59;75276.38;;;-145.72;71.93
15914;BME280;8055;51.930;8.840;2023-07-08T05:08:24;75259.81;;;-145.72;70.12
15914;BME280;8055;51.930;8.840;2023-07-08T05:10:50;75247.41;;;-145.72;69.68
15914;BME280;8055;51.930;8.840;2023-07-08T05:13:15;75237.06;;;-145.72;69.45
15914;BME280;8055;51.930;8.840;2023-07-08T05:15:40;75218.44;;;-145.72;69.28
15914;BME280;8055;51.930;8.840;2023-07-08T05:18:06;75224.66;;;-145.72;68.66
15914;BME280;8055;51.930;8.840;2023-07-08T05:20:31;75212.25;;;-145.72;67.73
15914;BME280;8055;51.930;8.840;2023-07-08T05:22:59;75218.44;;;-145.72;69.67
15914;BME280;8055;51.930;8.840;2023-07-08T05:25:24;75210.16;;;-145.72;68.71
15914;BME280;8055;51.930;8.840;2023-07-08T05:27:50;75199.81;;;-145.72;67.55
15914;BME280;8055;51.930;8.840;2023-07-08T05:30:17;75175.00;;;-145.72;65.48
15914;BME280;8055;51.930;8.840;2023-07-08T05:32:43;75162.59;;;-145.72;65.83
15914;BME280;8055;51.930;8.840;2023-07-08T05:35:09;75146.03;;;-145.72;65.62
15914;BME280;8055;51.930;8.840;2023-07-08T05:37:34;75133.63;;;-145.72;63.42
15914;BME280;8055;51.930;8.840;2023-07-08T05:40:00;75121.22;;;-145.72;65.40
15914;BME280;8055;51.930;8.840;2023-07-08T05:42:29;75119.13;;;-145.72;65.35
15914;BME280;8055;51.930;8.840;2023-07-08T05:44:55;75106.72;;;-145.72;64.36
15914;BME280;8055;51.930;8.840;2023-07-08T05:47:20;75094.31;;;-145.72;64.97
15914;BME280;8055;51.930;8.840;2023-07-08T05:49:47;75081.91;;;-145.72;64.21
15914;BME280;8055;51.930;8.840;2023-07-08T05:52:12;75073.63;;;-145.72;65.14
15914;BME280;8055;51.930;8.840;2023-07-08T05:54:39;75067.41;;;-145.72;63.47
15914;BME280;8055;51.930;8.840;2023-07-08T05:57:07;75059.13;;;-145.72;62.81
15914;BME280;8055;51.930;8.840;2023-07-08T05:59:33;75036.38;;;-145.72;62.44
15914;BME280;8055;51.930;8.840;2023-07-08T06:01:59;75023.97;;;-145.72;62.01
15914;BME280;8055;51.930;8.840;2023-07-08T06:04:24;75015.69;;;-145.72;63.53
15914;BME280;8055;51.930;8.840;2023-07-08T06:06:49;75013.63;;;-145.72;62.43
15914;BME280;8055;51.930;8.840;2023-07-08T06:09:15;75001.22;;;-145.72;63.29
15914;BME280;8055;51.930;8.840;2023-07-08T06:11:40;74990.88;;;-145.72;62.16
15914;BME280;8055;51.930;8.840;2023-07-08T06:14:06;74974.31;;;-145.72;60.48
15914;BME280;8055;51.930;8.840;2023-07-08T06:16:31;74955.69;;;-145.72;60.93
15914;BME280;8055;51.930;8.840;2023-07-08T06:18:57;74957.78;;;-145.72;61.72
15914;BME280;8055;51.930;8.840;2023-07-08T06:21:23;74935.00;;;-145.72;61.02
15914;BME280;8055;51.930;8.840;2023-07-08T06:23:49;74922.59;;;-145.72;60.27
15914;BME280;8055;51.930;8.840;2023-07-08T06:26:14;74922.59;;;-145.72;60.87
15914;BME280;8055;51.930;8.840;2023-07-08T06:28:39;74918.47;;;-145.72;60.56
15914;BME280;8055;51.930;8.840;2023-07-08T06:31:05;74903.97;;;-145.72;60.80
15914;BME280;8055;51.930;8.840;2023-07-08T06:33:30;74889.50;;;-145.72;60.59
15914;BME280;8055;51.930;8.840;2023-07-08T06:35:55;74879.16;;;-145.72;60.75
15914;BME280;8055;51.930;8.840;2023-07-08T06:38:21;74868.81;;;-145.72;60.19
15914;BME280;8055;51.930;8.840;2023-07-08T06:40:46;74864.66;;;-145.72;60.80
15914;BME280;8055;51.930;8.840;2023-07-08T06:43:11;74856.41;;;-145.72;60.33
15914;BME280;8055;51.930;8.840;2023-07-08T06:45:37;74854.31;;;-145.72;60.20
15914;BME280;8055;51.930;8.840;2023-07-08T06:48:02;74846.06;;;-145.72;59.84
15914;BME280;8055;51.930;8.840;2023-07-08T06:50:28;74835.72;;;-145.72;59.46
15914;BME280;8055;51.930;8.840;2023-07-08T06:52:53;74831.56;;;-145.72;59.13
15914;BME280;8055;51.930;8.840;2023-07-08T06:55:18;74808.81;;;-145.72;59.58
15914;BME280;8055;51.930;8.840;2023-07-08T06:57:44;74808.81;;;-145.72;57.71
15914;BME280;8055;51.930;8.840;2023-07-08T07:00:11;74790.19;;;-145.72;58.31
15914;BME280;8055;51.930;8.840;2023-07-08T07:02:37;74779.84;;;-145.72;57.09
15914;BME280;8055;51.930;8.840;2023-07-08T07:05:03;74767.44;;;-145.72;57.64
15914;BME280;8055;51.930;8.840;2023-07-08T07:07:29;74757.09;;;-145.72;57.15
15914;BME280;8055;51.930;8.840;2023-07-08T07:09:56;74744.69;;;-145.72;56.66
15914;BME280;8055;51.930;8.840;2023-07-08T07:12:23;74732.28;;;-145.72;54.90
15914;BME280;8055;51.930;8.840;2023-07-08T07:14:48;74719.88;;;-145.72;56.25
15914;BME280;8055;51.930;8.840;2023-07-08T07:17:15;74709.53;;;-145.72;56.86
15914;BME280;8055;51.930;8.840;2023-07-08T07:19:40;74684.69;;;-145.72;55.89
15914;BME280;8055;51.930;8.840;2023-07-08T07:22:06;74678.50;;;-145.72;55.83
15914;BME280;8055;51.930;8.840;2023-07-08T07:24:31;74670.22;;;-145.72;55.12
15914;BME280;8055;51.930;8.840;2023-07-08T07:26:57;74653.66;;;-145.72;53.80
15914;BME280;8055;51.930;8.840;2023-07-08T07:29:23;74639.19;;;-145.72;54.30
15914;BME280;8055;51.930;8.840;2023-07-08T07:31:49;74635.03;;;-145.72;53.51
15914;BME280;8055;51.930;8.840;2023-07-08T07:34:14;74624.69;;;-145.72;52.51
15914;BME280;8055;51.930;8.840;2023-07-08T07:36:40;74604.00;;;-145.72;52.13
15914;BME280;8055;51.930;8.840;2023-07-08T07:39:06;74595.75;;;-145.72;52.42
15914;BME280;8055;51.930;8.840;2023-07-08T07:41:31;74581.25;;;-145.72;53.72
15914;BME280;8055;51.930;8.840;2023-07-08T07:43:56;74570.91;;;-145.72;53.42
15914;BME280;8055;51.930;8.840;2023-07-08T07:46:22;74562.66;;;-145.72;52.60
15914;BME280;8055;51.930;8.840;2023-07-08T07:48:47;74541.97;;;-145.72;51.12
15914;BME280;8055;51.930;8.840;2023-07-08T07:51:13;74521.28;;;-145.72;55.38
15914;BME280;8055;51.930;8.840;2023-07-08T07:53:39;74506.78;;;-145.72;53.23
15914;BME280;8055;51.930;8.840;2023-07-08T07:56:04;74498.53;;;-145.72;51.52
15914;BME280;8055;51.930;8.840;2023-07-08T07:58:31;74490.25;;;-145.72;51.11
15914;BME280;8055;51.930;8.840;2023-07-08T08:00:56;74484.03;;;-145.72;51.43
15914;BME280;8055;51.930;8.840;2023-07-08T08:03:22;74479.91;;;-145.72;51.35
15914;BME280;8055;51.930;8.840;2023-07-08T08:05:48;74492.31;;;-145.72;51.28
15914;BME280;8055;51.930;8.840;2023-07-08T08:08:15;74481.97;;;-145.72;51.19
15914;BME280;8055;51.930;8.840;2023-07-08T08:10:42;74467.50;;;-145.72;51.58
15914;BME280;8055;51.930;8.840;2023-07-08T08:13:08;74459.22;;;-145.72;50.81
15914;BME280;8055;51.930;8.840;2023-07-08T08:15:34;74459.22;;;-145.72;52.04
15914;BME280;8055;51.930;8.840;2023-07-08T08:17:59;74442.66;;;-145.72;51.78
15914;BME280;8055;51.930;8.840;2023-07-08T08:20:25;74424.06;;;-145.72;51.01
15914;BME280;8055;51.930;8.840;2023-07-08T08:22:51;74409.56;;;-145.72;50.78
15914;BME280;8055;51.930;8.840;2023-07-08T08:25:18;74388.88;;;-145.72;51.30
15914;BME280;8055;51.930;8.840;2023-07-08T08:27:44;74372.34;;;-145.72;52.88
15914;BME280;8055;51.930;8.840;2023-07-08T08:30:10;74351.66;;;-145.72;51.88
15914;BME280;8055;51.930;8.840;2023-07-08T08:32:35;74335.09;;;-145.72;49.42
15914;BME280;8055;51.930;8.840;2023-07-08T08:35:01;74322.69;;;-145.72;49.34
15914;BME280;8055;51.930;8.840;2023-07-08T08:37:26;74302.00;;;-145.72;49.81
15914;BME280;8055;51.930;8.840;2023-07-08T08:39:51;74289.59;;;-145.72;48.79
15914;BME280;8055;51.930;8.840;2023-07-08T08:42:26;74262.72;;;-145.72;49.59
15914;BME280;8055;51.930;8.840;2023-07-08T08:44:53;74254.44;;;-145.72;48.91
15914;BME280;8055;51.930;8.840;2023-07-08T08:52:46;74200.66;;;-145.72;47.84
15914;BME280;8055;51.930;8.840;2023-07-08T08:55:13;74202.72;;;-145.72;46.19
15914;BME280;8055;51.930;8.840;2023-07-08T08:57:57;74182.03;;;-145.72;47.24
15914;BME280;8055;51.930;8.840;2023-07-08T09:00:31;74182.03;;;-145.72;44.94
15914;BME280;8055;51.930;8.840;2023-07-08T09:03:02;74179.97;;;-145.72;44.82
15914;BME280;8055;51.930;8.840;2023-07-08T09:05:29;74179.97;;;-145.72;47.04
15914;BME280;8055;51.930;8.840;2023-07-08T09:07:59;74175.84;;;-145.72;46.37
15914;BME280;8055;51.930;8.840;2023-07-08T09:10:35;74169.63;;;-145.72;46.27
15914;BME280;8055;51.930;8.840;2023-07-08T09:13:06;74161.34;;;-145.72;47.18
15914;BME280;8055;51.930;8.840;2023-07-08T09:15:32;74142.75;;;-145.72;46.18
15914;BME280;8055;51.930;8.840;2023-07-08T09:20:45;74084.81;;;-145.72;45.49
15914;BME280;8055;51.930;8.840;2023-07-08T09:26:06;74053.81;;;-145.72;45.02
15914;BME280;8055;51.930;8.840;2023-07-08T09:28:40;74039.31;;;-145.72;45.55
15914;BME280;8055;51.930;8.840;2023-07-08T09:31:08;74037.25;;;-145.72;45.23
15914;BME280;8055;51.930;8.840;2023-07-08T09:33:38;74024.84;;;-145.72;44.09
15914;BME280;8055;51.930;8.840;2023-07-08T09:36:16;74012.44;;;-145.72;42.85
15914;BME280;8055;51.930;8.840;2023-07-08T09:38:42;73997.94;;;-145.72;45.43
15914;BME280;8055;51.930;8.840;2023-07-08T09:41:07;73979.34;;;-145.72;45.28
15914;BME280;8055;51.930;8.840;2023-07-08T09:43:42;73956.59;;;-145.72;44.49
15914;BME280;8055;51.930;8.840;2023-07-08T09:46:12;73937.97;;;-145.72;43.84
15914;BME280;8055;51.930;8.840;2023-07-08T09:48:37;73931.78;;;-145.72;42.84
15914;BME280;8055;51.930;8.840;2023-07-08T09:51:03;73927.63;;;-145.72;40.63
15914;BME280;8055;51.930;8.840;2023-07-08T09:53:29;73940.03;;;-145.72;40.33
15914;BME280;8055;51.930;8.840;2023-07-08T09:55:59;73925.56;;;-145.72;40.58
15914;BME280;8055;51.930;8.840;2023-07-08T09:58:30;73921.44;;;-145.72;39.46
15914;BME280;8055;51.930;8.840;2023-07-08T10:00:58;73917.28;;;-145.72;40.64
15914;BME280;8055;51.930;8.840;2023-07-08T10:03:27;73892.47;;;-145.72;39.63
15914;BME280;8055;51.930;8.840;2023-07-08T10:05:55;73880.06;;;-145.72;38.29
15914;BME280;8055;51.930;8.840;2023-07-08T10:08:34;73873.84;;;-145.72;39.89
15914;BME280;8055;51.930;8.840;2023-07-08T10:11:25;73836.63;;;-145.72;41.19
15914;BME280;8055;51.930;8.840;2023-07-08T10:13:54;73826.28;;;-145.72;39.95
15914;BME280;8055;51.930;8.840;2023-07-08T10:16:28;73818.00;;;-145.72;40.35
15914;BME280;8055;51.930;8.840;2023-07-08T10:18:54;73813.88;;;-145.72;38.73
15914;BME280;8055;51.930;8.840;2023-07-08T10:24:29;73784.94;;;-145.72;39.78
15914;BME280;8055;51.930;8.840;2023-07-08T10:27:35;73768.38;;;-145.72;39.23
15914;BME280;8055;51.930;8.840;2023-07-08T10:35:28;73749.75;;;-145.72;37.38
15914;BME280;8055;51.930;8.840;2023-07-08T10:40:55;73743.56;;;-145.72;36.93
15914;BME280;8055;51.930;8.840;2023-07-08T10:43:30;73731.16;;;-145.72;35.06
15914;BME280;8055;51.930;8.840;2023-07-08T10:56:16;73693.94;;;-145.72;32.58
15914;BME280;8055;51.930;8.840;2023-07-08T10:58:58;73656.69;;;-145.72;33.08
15914;BME280;8055;51.930;8.840;2023-07-08T11:01:39;73652.56;;;-145.72;32.43
15914;BME280;8055;51.930;8.840;2023-07-08T11:04:26;73640.16;;;-145.72;31.81
15914;BME280;8055;51.930;8.840;2023-07-08T11:07:16;73602.94;;;-145.72;32.16
15914;BME280;8055;51.930;8.840;2023-07-08T11:12:31;73592.59;;;-145.72;32.10
15914;BME280;8055;51.930;8.840;2023-07-08T11:15:01;73596.72;;;-145.72;30.82
15914;BME280;8055;51.930;8.840;2023-07-08T11:21:12;73567.78;;;-145.72;31.13
15914;BME280;8055;51.930;8.840;2023-07-08T11:26:36;73528.47;;;-145.72;30.34
15914;BME280;8055;51.930;8.840;2023-07-08T11:29:14;73530.53;;;-145.72;29.73
15914;BME280;8055;51.930;8.840;2023-07-08T11:31:41;73520.19;;;-145.72;29.50
15914;BME280;8055;51.930;8.840;2023-07-08T11:34:08;73518.13;;;-145.72;30.37
15914;BME280;8055;51.930;8.840;2023-07-08T11:36:36;73509.88;;;-145.72;29.18
15914;BME280;8055;51.930;8.840;2023-07-08T11:39:02;73482.97;;;-145.72;31.14
15914;BME280;8055;51.930;8.840;2023-07-08T11:41:52;73478.84;;;-145.72;28.66
15914;BME280;8055;51.930;8.840;2023-07-08T11:44:18;73478.84;;;-145.72;28.68
15914;BME280;8055;51.930;8.840;2023-07-08T11:46:54;73470.56;;;-145.72;29.25
15914;BME280;8055;51.930;8.840;2023-07-08T11:49:20;73445.75;;;-145.72;29.56
15914;BME280;8055;51.930;8.840;2023-07-08T11:51:47;73439.56;;;-145.72;28.94
15914;BME280;8055;51.930;8.840;2023-07-08T11:54:17;73425.06;;;-145.72;28.75
15914;BME280;8055;51.930;8.840;2023-07-08T11:59:23;73396.13;;;-145.72;28.58
15914;BME280;8055;51.930;8.840;2023-07-08T12:02:04;73373.38;;;-145.72;28.49
15914;BME280;8055;51.930;8.840;2023-07-08T12:04:56;73352.69;;;-145.72;29.20
15914;BME280;8055;51.930;8.840;2023-07-08T12:07:40;73356.84;;;-145.72;28.59
15914;BME280;8055;51.930;8.840;2023-07-08T12:10:28;73346.50;;;-145.72;28.19
15914;BME280;8055;51.930;8.840;2023-07-08T12:12:56;73340.28;;;-145.72;28.90
15914;BME280;8055;51.930;8.840;2023-07-08T12:15:27;73313.41;;;-145.72;28.41
15914;BME280;8055;51.930;8.840;2023-07-08T12:20:37;73269.97;;;-145.72;28.89
15914;BME280;8055;51.930;8.840;2023-07-08T12:23:10;73247.22;;;-145.72;28.23
15914;BME280;8055;51.930;8.840;2023-07-08T12:25:36;73245.16;;;-145.72;28.01
15914;BME280;8055;51.930;8.840;2023-07-08T12:28:02;73247.22;;;-145.72;27.49
15914;BME280;8055;51.930;8.840;2023-07-08T12:30:30;73234.81;;;-145.72;28.33
15914;BME280;8055;51.930;8.840;2023-07-08T12:32:56;73251.38;;;-145.72;27.13
15914;BME280;8055;51.930;8.840;2023-07-08T12:35:30;73220.34;;;-145.72;27.86
15914;BME280;8055;51.930;8.840;2023-07-08T12:38:02;73216.22;;;-145.72;28.07
15914;BME280;8055;51.930;8.840;2023-07-08T12:40:29;73218.28;;;-145.72;27.04
15914;BME280;8055;51.930;8.840;2023-07-08T12:42:56;73228.63;;;-145.72;27.00
15914;BME280;8055;51.930;8.840;2023-07-08T12:45:23;73259.63;;;-145.72;27.40
15914;BME280;8055;51.930;8.840;2023-07-08T12:47:50;73228.63;;;-145.72;27.94
15914;BME280;8055;51.930;8.840;2023-07-08T12:50:16;73212.06;;;-145.72;28.01
15914;BME280;8055;51.930;8.840;2023-07-08T12:52:46;73197.59;;;-145.72;27.16
15914;BME280;8055;51.930;8.840;2023-07-08T12:55:13;73199.66;;;-145.72;27.93
15914;BME280;8055;51.930;8.840;2023-07-08T12:57:41;73189.31;;;-145.72;27.58
15914;BME280;8055;51.930;8.840;2023-07-08T13:00:36;73139.69;;;-145.72;29.09
15914;BME280;8055;51.930;8.840;2023-07-08T13:03:17;73123.16;;;-145.72;28.55
15914;BME280;8055;51.930;8.840;2023-07-08T13:05:44;73147.97;;;-145.72;28.03
15914;BME280;8055;51.930;8.840;2023-07-08T13:08:14;73143.84;;;-145.72;27.27
15914;BME280;8055;51.930;8.840;2023-07-08T13:10:40;73139.69;;;-145.72;28.42
15914;BME280;8055;51.930;8.840;2023-07-08T13:13:15;73123.16;;;-145.72;28.99
15914;BME280;8055;51.930;8.840;2023-07-08T13:15:42;73088.00;;;-145.72;28.33
15914;BME280;8055;51.930;8.840;2023-07-08T13:18:19;73102.47;;;-145.72;27.07
15914;BME280;8055;51.930;8.840;2023-07-08T13:20:54;73137.63;;;-145.72;26.94
15914;BME280;8055;51.930;8.840;2023-07-08T13:23:21;73139.69;;;-145.72;27.27
15914;BME280;8055;51.930;8.840;2023-07-08T13:25:48;73139.69;;;-145.72;26.66
15914;BME280;8055;51.930;8.840;2023-07-08T13:28:20;73137.63;;;-145.72;27.30
15914;BME280;8055;51.930;8.840;2023-07-08T13:31:02;73123.16;;;-145.72;27.61
15914;BME280;8055;51.930;8.840;2023-07-08T13:33:33;73131.44;;;-145.72;27.45
15914;BME280;8055;51.930;8.840;2023-07-08T13:36:01;73088.00;;;-145.72;27.31
15914;BME280;8055;51.930;8.840;2023-07-08T13:38:32;73131.44;;;-145.72;27.19
15914;BME280;8055;51.930;8.840;2023-07-08T13:41:01;73135.56;;;-145.72;27.56
15914;BME280;8055;51.930;8.840;2023-07-08T13:43:38;73170.72;;;-145.72;25.88